createdAt,value
2019-03-21T00:01:54.230Z,14.45
2019-03-21T00:04:24.509Z,13.48
2019-03-21T00:06:54.303Z,13.80
2019-03-21T00:09:24.355Z,9.08
2019-03-21T00:12:01.198Z,8.10
2019-03-21T00:14:49.768Z,15.25
2019-03-21T00:17:29.706Z,8.55
2019-03-21T00:19:59.690Z,8.75
2019-03-21T00:22:30.860Z,9.18
2019-03-21T00:25:01.938Z,10.58
2019-03-21T00:27:33.653Z,10.05
2019-03-21T00:30:12.967Z,9.70
2019-03-21T00:32:44.992Z,10.60
2019-03-21T00:35:17.438Z,11.93
2019-03-21T00:37:49.576Z,18.05
2019-03-21T00:40:46.085Z,8.65
2019-03-21T00:43:16.206Z,14.25
2019-03-21T00:45:46.048Z,10.18
2019-03-21T00:48:20.153Z,3.35
2019-03-21T00:50:52.079Z,10.18
2019-03-21T00:53:29.979Z,8.98
2019-03-21T00:56:05.916Z,4.28
2019-03-21T00:58:37.726Z,4.15
2019-03-21T01:01:09.198Z,9.43
2019-03-21T01:03:39.742Z,8.65
2019-03-21T01:06:12.075Z,3.83
2019-03-21T01:08:44.088Z,8.70
2019-03-21T01:11:14.180Z,7.50
2019-03-21T01:13:49.447Z,5.25
2019-03-21T01:16:37.938Z,10.28
2019-03-21T01:19:07.794Z,6.37
2019-03-21T01:21:37.503Z,3.77
2019-03-21T01:24:20.664Z,3.33
2019-03-21T01:26:54.786Z,4.85
2019-03-21T01:29:24.640Z,6.42
2019-03-21T01:31:59.659Z,4.97
2019-03-21T01:34:29.756Z,4.37
2019-03-21T01:37:00.859Z,6.17
2019-03-21T01:39:30.976Z,8.05
2019-03-21T01:42:03.751Z,2.98
2019-03-21T01:44:41.022Z,5.55
2019-03-21T01:47:06.716Z,9.28
2019-03-21T01:49:36.831Z,7.33
2019-03-21T01:52:08.602Z,6.47
2019-03-21T01:54:40.528Z,5.78
2019-03-21T01:57:12.580Z,3.22
2019-03-21T01:59:51.232Z,6.78
2019-03-21T02:02:23.174Z,6.42
2019-03-21T02:04:55.227Z,2.92
2019-03-21T02:07:33.534Z,7.35
2019-03-21T02:10:04.551Z,6.70
2019-03-21T02:12:35.490Z,4.58
2019-03-21T02:15:10.534Z,4.33
2019-03-21T02:17:40.560Z,4.25
2019-03-21T02:20:20.029Z,5.37
2019-03-21T02:22:53.277Z,4.10
2019-03-21T02:25:28.851Z,3.40
2019-03-21T02:28:09.694Z,4.00
2019-03-21T02:30:46.420Z,7.72
2019-03-21T02:33:34.546Z,12.18
2019-03-21T02:36:18.640Z,7.05
2019-03-21T02:38:50.391Z,6.25
2019-03-21T02:41:20.116Z,5.75
2019-03-21T02:43:51.375Z,4.30
2019-03-21T02:46:21.330Z,7.78
2019-03-21T02:48:53.362Z,12.85
2019-03-21T02:51:23.455Z,2.58
2019-03-21T02:53:53.562Z,2.42
2019-03-21T02:56:25.522Z,12.82
2019-03-21T02:58:56.463Z,12.68
2019-03-21T03:01:27.519Z,7.35
2019-03-21T03:03:59.359Z,11.95
2019-03-21T03:06:40.080Z,3.08
2019-03-21T03:09:16.260Z,6.08
2019-03-21T03:11:46.097Z,6.60
2019-03-21T03:14:17.076Z,6.92
2019-03-21T03:16:50.963Z,13.50
2019-03-21T03:19:23.703Z,4.00
2019-03-21T03:21:53.918Z,1.98
2019-03-21T03:24:25.728Z,2.83
2019-03-21T03:26:55.866Z,6.10
2019-03-21T03:29:25.963Z,10.13
2019-03-21T03:31:55.812Z,4.33
2019-03-21T03:34:25.495Z,3.20
2019-03-21T03:36:57.203Z,3.50
2019-03-21T03:39:27.210Z,2.35
2019-03-21T03:41:57.062Z,10.45
2019-03-21T03:44:27.021Z,13.20
2019-03-21T03:46:59.036Z,9.58
2019-03-21T03:49:29.139Z,5.45
2019-03-21T03:52:04.762Z,6.12
2019-03-21T03:54:34.827Z,3.12
2019-03-21T03:57:11.306Z,7.03
2019-03-21T03:59:41.145Z,4.55
2019-03-21T04:02:11.095Z,3.40
2019-03-21T04:04:40.923Z,2.83
2019-03-21T04:07:11.893Z,7.95
2019-03-21T04:09:42.001Z,3.50
2019-03-21T04:12:13.290Z,2.62
2019-03-21T04:14:44.133Z,7.55
2019-03-21T04:17:18.669Z,13.20
2019-03-21T04:19:48.792Z,5.67
2019-03-21T04:22:22.824Z,2.45
2019-03-21T04:24:52.734Z,3.33
2019-03-21T04:27:23.432Z,3.37
2019-03-21T04:29:59.088Z,3.70
2019-03-21T04:32:29.076Z,4.85
2019-03-21T04:34:59.178Z,7.75
2019-03-21T04:37:30.019Z,3.67
2019-03-21T04:40:00.944Z,2.90
2019-03-21T04:42:31.044Z,13.48
2019-03-21T04:45:04.222Z,8.83
2019-03-21T04:47:40.038Z,4.08
2019-03-21T04:50:14.740Z,2.62
2019-03-21T04:52:46.523Z,3.37
2019-03-21T04:55:17.732Z,6.17
2019-03-21T04:57:47.843Z,3.27
2019-03-21T05:00:23.622Z,3.90
2019-03-21T05:02:57.302Z,8.30
2019-03-21T05:05:29.356Z,5.17
2019-03-21T05:08:00.384Z,6.97
2019-03-21T05:10:33.334Z,2.85
2019-03-21T05:13:04.054Z,2.92
2019-03-21T05:15:50.244Z,5.42
2019-03-21T05:18:37.392Z,3.80
2019-03-21T05:21:18.879Z,5.08
2019-03-21T05:23:50.730Z,4.72
2019-03-21T05:26:20.685Z,3.20
2019-03-21T05:28:50.774Z,11.22
2019-03-21T05:31:35.002Z,3.98
2019-03-21T05:34:05.711Z,4.12
2019-03-21T05:36:35.662Z,6.95
2019-03-21T05:39:12.387Z,3.27
2019-03-21T05:41:44.329Z,5.83
2019-03-21T05:44:20.774Z,5.12
2019-03-21T05:46:50.718Z,8.30
2019-03-21T05:49:21.751Z,6.47
2019-03-21T05:51:52.573Z,5.80
2019-03-21T05:54:22.539Z,4.83
2019-03-21T05:56:52.644Z,6.03
2019-03-21T05:59:22.746Z,4.62
2019-03-21T06:01:58.687Z,2.92
2019-03-21T06:04:29.530Z,5.87
2019-03-21T06:07:19.418Z,13.08
2019-03-21T06:09:49.526Z,6.08
2019-03-21T06:12:20.323Z,4.85
2019-03-21T06:14:55.145Z,5.72
2019-03-21T06:17:25.219Z,5.85
2019-03-21T06:20:10.134Z,4.92
2019-03-21T06:22:59.977Z,10.80
2019-03-21T06:26:00.539Z,5.40
2019-03-21T06:28:30.625Z,7.92
2019-03-21T06:31:00.733Z,6.42
2019-03-21T06:33:41.080Z,7.10
2019-03-21T06:36:11.866Z,4.03
2019-03-21T06:38:41.842Z,11.15
2019-03-21T06:41:17.999Z,13.08
2019-03-21T06:43:50.075Z,2.92
2019-03-21T06:46:20.281Z,5.12
2019-03-21T06:48:50.473Z,9.88
2019-03-21T06:51:20.358Z,9.60
2019-03-21T06:53:50.313Z,10.60
2019-03-21T06:56:20.150Z,6.30
2019-03-21T06:58:53.235Z,6.50
2019-03-21T07:01:23.319Z,9.83
2019-03-21T07:04:07.080Z,6.60
2019-03-21T07:06:33.235Z,12.37
2019-03-21T07:09:05.109Z,9.27
2019-03-21T07:11:35.859Z,9.47
2019-03-21T07:14:05.541Z,6.83
2019-03-21T07:16:35.506Z,3.30
2019-03-21T07:19:06.582Z,5.40
2019-03-21T07:21:36.676Z,8.60
2019-03-21T07:24:15.905Z,5.90
2019-03-21T07:26:46.023Z,4.77
2019-03-21T07:29:16.114Z,15.03
2019-03-21T07:31:46.939Z,4.30
2019-03-21T07:34:16.896Z,4.23
2019-03-21T07:36:46.777Z,2.90
2019-03-21T07:39:16.775Z,8.77
2019-03-21T07:41:46.599Z,4.00
2019-03-21T07:44:19.628Z,16.30
2019-03-21T07:46:49.987Z,3.50
2019-03-21T07:49:22.674Z,7.87
2019-03-21T07:51:52.629Z,4.10
2019-03-21T07:54:34.571Z,6.90
2019-03-21T07:57:12.336Z,7.37
2019-03-21T07:59:42.167Z,11.27
2019-03-21T08:02:12.131Z,10.20
2019-03-21T08:04:43.104Z,6.83
2019-03-21T08:07:13.201Z,11.30
2019-03-21T08:09:43.070Z,8.20
2019-03-21T08:12:13.155Z,4.37
2019-03-21T08:14:43.008Z,13.17
2019-03-21T08:17:12.972Z,10.63
2019-03-21T08:19:42.791Z,3.70
2019-03-21T08:22:12.741Z,9.43
2019-03-21T08:24:42.847Z,6.30
2019-03-21T08:27:12.703Z,11.10
2019-03-21T08:29:42.387Z,9.13
2019-03-21T08:32:12.087Z,7.93
2019-03-21T08:34:42.751Z,4.00
2019-03-21T08:37:12.719Z,6.70
2019-03-21T08:39:42.548Z,12.90
2019-03-21T08:42:14.509Z,14.37
2019-03-21T08:44:44.327Z,5.60
2019-03-21T08:47:14.287Z,10.53
2019-03-21T08:49:44.123Z,2.97
2019-03-21T08:52:14.971Z,8.47
2019-03-21T08:54:44.799Z,4.20
2019-03-21T08:57:16.503Z,5.60
2019-03-21T08:59:47.995Z,4.50
2019-03-21T09:02:18.027Z,7.43
2019-03-21T09:04:48.127Z,9.63
2019-03-21T09:07:18.843Z,4.93
2019-03-21T09:09:50.943Z,6.30
2019-03-21T09:12:21.044Z,6.90
2019-03-21T09:14:51.139Z,4.00
2019-03-21T09:17:24.291Z,5.03
2019-03-21T09:19:54.360Z,8.90
2019-03-21T09:22:27.425Z,3.53
2019-03-21T09:25:00.337Z,7.13
2019-03-21T09:27:39.203Z,2.50
2019-03-21T09:30:24.086Z,6.40
2019-03-21T09:32:54.036Z,2.70
2019-03-21T09:35:34.691Z,2.93
2019-03-21T09:38:05.712Z,12.83
2019-03-21T09:40:41.588Z,5.40
2019-03-21T09:43:15.825Z,2.83
2019-03-21T09:45:45.924Z,11.67
2019-03-21T09:48:22.804Z,4.20
2019-03-21T09:50:58.643Z,6.10
2019-03-21T09:53:31.429Z,8.40
2019-03-21T09:56:01.512Z,7.60
2019-03-21T09:58:32.243Z,2.43
2019-03-21T10:01:02.219Z,5.13
2019-03-21T10:03:32.319Z,5.87
2019-03-21T10:06:08.396Z,2.67
2019-03-21T10:08:40.187Z,14.87
2019-03-21T10:11:10.139Z,4.70
2019-03-21T10:13:40.240Z,4.47
2019-03-21T10:16:20.072Z,4.70
2019-03-21T10:18:49.943Z,4.87
2019-03-21T10:21:26.471Z,3.77
2019-03-21T10:23:56.482Z,8.30
2019-03-21T10:26:26.615Z,4.70
2019-03-21T10:29:14.747Z,4.03
2019-03-21T10:31:44.527Z,6.20
2019-03-21T10:34:15.525Z,5.27
2019-03-21T10:36:45.655Z,4.87
2019-03-21T10:39:15.752Z,5.53
2019-03-21T10:41:45.571Z,5.40
2019-03-21T10:44:21.509Z,6.57
2019-03-21T10:46:51.595Z,4.03
2019-03-21T10:49:21.715Z,3.40
2019-03-21T10:51:55.131Z,4.80
2019-03-21T10:54:24.679Z,6.10
2019-03-21T10:56:54.498Z,2.60
2019-03-21T10:59:24.519Z,4.47
2019-03-21T11:01:54.384Z,5.87
2019-03-21T11:04:25.346Z,3.27
2019-03-21T11:07:03.320Z,4.80
2019-03-21T11:09:33.412Z,10.27
2019-03-21T11:12:07.375Z,5.93
2019-03-21T11:14:37.703Z,5.10
2019-03-21T11:17:11.579Z,3.73
2019-03-21T11:19:41.575Z,8.57
2019-03-21T11:22:11.683Z,2.50
2019-03-21T11:24:41.795Z,3.67
2019-03-21T11:27:12.117Z,3.33
2019-03-21T11:29:41.947Z,3.87
2019-03-21T11:32:13.847Z,3.73
2019-03-21T11:34:46.685Z,3.53
2019-03-21T11:37:16.649Z,4.63
2019-03-21T11:39:47.383Z,3.70
2019-03-21T11:42:18.227Z,3.90
2019-03-21T11:44:48.995Z,4.87
2019-03-21T11:47:18.782Z,3.83
2019-03-21T11:49:48.468Z,5.03
2019-03-21T11:52:18.810Z,3.33
2019-03-21T11:54:49.527Z,4.73
2019-03-21T11:57:19.223Z,2.43
2019-03-21T11:59:51.875Z,4.43
2019-03-21T12:02:27.042Z,3.83
2019-03-21T12:04:52.847Z,10.80
2019-03-21T12:07:22.557Z,3.50
2019-03-21T12:09:52.524Z,6.87
2019-03-21T12:12:22.707Z,7.77
2019-03-21T12:14:52.536Z,1.90
2019-03-21T12:17:22.479Z,4.53
2019-03-21T12:19:52.603Z,3.43
2019-03-21T12:22:30.071Z,4.07
2019-03-21T12:24:55.451Z,1.87
2019-03-21T12:27:25.543Z,6.80
2019-03-21T12:29:56.499Z,4.00
2019-03-21T12:32:28.615Z,2.80
2019-03-21T12:34:58.718Z,2.50
2019-03-21T12:37:29.767Z,4.10
2019-03-21T12:40:19.207Z,2.07
2019-03-21T12:42:49.039Z,5.23
2019-03-21T12:45:18.727Z,3.47
2019-03-21T12:47:49.619Z,2.00
2019-03-21T12:50:19.461Z,6.33
2019-03-21T12:52:49.400Z,3.27
2019-03-21T12:55:19.501Z,1.97
2019-03-21T12:57:49.334Z,7.93
2019-03-21T13:00:23.935Z,2.13
2019-03-21T13:02:53.763Z,4.07
2019-03-21T13:05:32.492Z,1.53
2019-03-21T13:08:02.591Z,1.37
2019-03-21T13:10:32.686Z,2.80
2019-03-21T13:13:06.173Z,5.77
2019-03-21T13:15:37.119Z,2.27
2019-03-21T13:18:07.616Z,3.20
2019-03-21T13:20:37.598Z,2.03
2019-03-21T13:23:07.942Z,5.80
2019-03-21T13:25:37.667Z,2.70
2019-03-21T13:28:07.419Z,2.37
2019-03-21T13:30:37.111Z,3.00
2019-03-21T13:33:07.109Z,1.80
2019-03-21T13:35:36.929Z,6.13
2019-03-21T13:38:08.771Z,3.23
2019-03-21T13:40:39.135Z,5.27
2019-03-21T13:43:11.282Z,3.60
2019-03-21T13:45:41.187Z,2.27
2019-03-21T13:48:11.144Z,1.53
2019-03-21T13:50:40.967Z,6.63
2019-03-21T13:53:18.539Z,5.33
2019-03-21T13:55:43.443Z,3.40
2019-03-21T13:58:14.419Z,1.57
2019-03-21T14:00:44.535Z,1.50
2019-03-21T14:03:24.620Z,6.03
2019-03-21T14:05:47.430Z,3.13
2019-03-21T14:08:17.235Z,11.33
2019-03-21T14:10:52.969Z,1.53
2019-03-21T14:13:22.642Z,5.43
2019-03-21T14:15:52.623Z,2.60
2019-03-21T14:18:23.491Z,3.80
2019-03-21T14:20:53.452Z,1.53
2019-03-21T14:23:23.591Z,4.27
2019-03-21T14:25:56.172Z,4.20
2019-03-21T14:28:26.287Z,1.90
2019-03-21T14:30:56.127Z,2.07
2019-03-21T14:33:26.971Z,2.67
2019-03-21T14:35:58.979Z,5.20
2019-03-21T14:38:29.782Z,2.70
2019-03-21T14:40:59.519Z,3.40
2019-03-21T14:43:30.707Z,1.63
2019-03-21T14:46:00.808Z,4.30
2019-03-21T14:48:30.659Z,5.43
2019-03-21T14:51:00.626Z,2.33
2019-03-21T14:53:32.720Z,6.03
2019-03-21T14:56:02.563Z,2.03
2019-03-21T14:58:32.259Z,3.47
2019-03-21T15:01:04.461Z,3.90
2019-03-21T15:03:35.779Z,3.17
2019-03-21T15:06:05.611Z,1.77
2019-03-21T15:08:35.307Z,13.63
2019-03-21T15:11:16.336Z,2.30
2019-03-21T15:13:36.605Z,1.67
2019-03-21T15:16:06.680Z,4.03
2019-03-21T15:18:36.791Z,1.73
2019-03-21T15:21:12.723Z,2.07
2019-03-21T15:23:42.551Z,5.33
2019-03-21T15:26:13.443Z,2.40
2019-03-21T15:28:50.617Z,3.23
2019-03-21T15:31:20.715Z,3.27
2019-03-21T15:33:53.595Z,3.40
2019-03-21T15:36:23.275Z,2.37
2019-03-21T15:38:52.959Z,3.33
2019-03-21T15:41:29.523Z,2.10
2019-03-21T15:43:59.487Z,4.53
2019-03-21T15:46:30.599Z,2.43
2019-03-21T15:49:02.571Z,1.77
2019-03-21T15:51:33.576Z,3.43
2019-03-21T15:54:03.681Z,2.10
2019-03-21T15:56:33.507Z,1.83
2019-03-21T15:59:06.602Z,2.20
2019-03-21T16:01:38.588Z,3.63
2019-03-21T16:04:11.074Z,27.07
2019-03-21T16:06:40.793Z,4.17
2019-03-21T16:09:38.516Z,2.63
2019-03-21T16:12:09.492Z,3.13
2019-03-21T16:14:40.616Z,3.17
2019-03-21T16:17:12.379Z,7.07
2019-03-21T16:19:47.863Z,3.70
2019-03-21T16:22:20.543Z,5.33
2019-03-21T16:24:51.791Z,4.87
2019-03-21T16:27:21.885Z,2.53
2019-03-21T16:29:51.723Z,2.80
2019-03-21T16:32:22.628Z,4.80
2019-03-21T16:34:52.771Z,1.90
2019-03-21T16:37:28.427Z,2.67
2019-03-21T16:39:58.394Z,3.90
2019-03-21T16:42:28.500Z,7.93
2019-03-21T16:44:58.858Z,3.53
2019-03-21T16:47:28.943Z,3.07
2019-03-21T16:50:11.676Z,3.17
2019-03-21T16:52:41.528Z,7.13
2019-03-21T16:55:15.452Z,4.07
2019-03-21T16:57:45.289Z,6.20
2019-03-21T17:00:22.151Z,4.80
2019-03-21T17:02:53.096Z,2.97
2019-03-21T17:05:23.000Z,3.80
2019-03-21T17:07:52.699Z,9.20
2019-03-21T17:10:22.401Z,4.60
2019-03-21T17:12:52.163Z,3.23
2019-03-21T17:15:27.189Z,3.97
2019-03-21T17:17:57.311Z,3.47
2019-03-21T17:20:27.425Z,7.77
2019-03-21T17:22:57.542Z,4.37
2019-03-21T17:25:35.643Z,3.50
2019-03-21T17:28:05.548Z,3.80
2019-03-21T17:30:35.243Z,6.33
2019-03-21T17:33:08.427Z,4.83
2019-03-21T17:35:38.274Z,5.47
2019-03-21T17:38:10.234Z,4.53
2019-03-21T17:40:40.055Z,11.23
2019-03-21T17:43:10.048Z,14.53
2019-03-21T17:45:39.879Z,12.30
2019-03-21T17:48:09.567Z,14.50
2019-03-21T17:50:39.291Z,13.53
2019-03-21T17:53:08.982Z,9.33
2019-03-21T17:55:39.815Z,6.53
2019-03-21T17:58:09.907Z,1.97
2019-03-21T18:00:39.812Z,4.57
2019-03-21T18:03:15.121Z,4.50
2019-03-21T18:05:44.803Z,5.90
2019-03-21T18:08:20.243Z,4.00
2019-03-21T18:10:50.187Z,4.83
2019-03-21T18:13:20.023Z,6.13
2019-03-21T18:15:49.743Z,8.33
2019-03-21T18:18:19.531Z,4.33
2019-03-21T18:20:50.831Z,4.93
2019-03-21T18:23:20.801Z,7.23
2019-03-21T18:25:51.531Z,7.63
2019-03-21T18:28:21.488Z,2.87
2019-03-21T18:30:52.573Z,5.33
2019-03-21T18:33:22.683Z,2.50
2019-03-21T18:35:55.559Z,3.83
2019-03-21T18:38:26.227Z,9.47
2019-03-21T18:40:56.195Z,2.00
2019-03-21T18:43:32.836Z,4.60
2019-03-21T18:46:02.809Z,3.37
2019-03-21T18:48:35.575Z,2.03
2019-03-21T18:51:05.486Z,4.73
2019-03-21T18:53:35.192Z,3.90
2019-03-21T18:56:09.169Z,3.17
2019-03-21T18:58:38.903Z,4.50
2019-03-21T19:01:10.963Z,8.10
2019-03-21T19:03:40.791Z,6.83
2019-03-21T19:06:10.517Z,8.60
2019-03-21T19:08:41.441Z,7.50
2019-03-21T19:11:17.547Z,9.33
2019-03-21T19:13:47.499Z,7.57
2019-03-21T19:16:17.588Z,5.53
2019-03-21T19:18:47.410Z,4.10
2019-03-21T19:21:17.115Z,9.83
2019-03-21T19:23:47.087Z,3.57
2019-03-21T19:26:17.173Z,5.27
2019-03-21T19:28:47.011Z,6.97
2019-03-21T19:31:16.959Z,9.50
2019-03-21T19:33:47.787Z,5.63
2019-03-21T19:36:18.680Z,5.93
2019-03-21T19:38:48.508Z,8.20
2019-03-21T19:41:18.464Z,5.87
2019-03-21T19:43:54.657Z,10.90
2019-03-21T19:46:25.451Z,15.63
2019-03-21T19:48:55.523Z,18.10
2019-03-21T19:51:25.885Z,20.30
2019-03-21T19:53:56.026Z,26.93
2019-03-21T19:56:34.062Z,17.17
2019-03-21T19:59:04.249Z,15.70
2019-03-21T20:01:35.320Z,32.30
2019-03-21T20:04:06.361Z,85.80
2019-03-21T20:06:36.271Z,146.87
2019-03-21T20:09:07.781Z,67.23
2019-03-21T20:11:37.911Z,18.10
2019-03-21T20:14:09.695Z,13.40
2019-03-21T20:16:39.671Z,14.47
2019-03-21T20:19:09.633Z,8.77
2019-03-21T20:21:47.760Z,7.00
2019-03-21T20:24:14.323Z,10.65
2019-03-21T20:26:44.247Z,6.55
2019-03-21T20:29:13.955Z,9.25
2019-03-21T20:31:44.029Z,10.82
2019-03-21T20:34:15.827Z,9.10
2019-03-21T20:36:45.805Z,11.03
2019-03-21T20:39:16.590Z,11.70
2019-03-21T20:41:50.503Z,11.70
2019-03-21T20:44:21.127Z,13.00
2019-03-21T20:46:50.827Z,10.68
2019-03-21T20:49:20.813Z,9.23
2019-03-21T20:51:51.605Z,13.18
2019-03-21T20:54:21.657Z,14.35
2019-03-21T20:56:51.769Z,8.17
2019-03-21T20:59:21.885Z,8.03
2019-03-21T21:02:02.194Z,13.88
2019-03-21T21:04:27.003Z,18.73
2019-03-21T21:06:57.967Z,8.40
2019-03-21T21:09:30.773Z,8.95
2019-03-21T21:12:01.603Z,9.48
2019-03-21T21:14:37.085Z,9.87
2019-03-21T21:17:11.836Z,11.53
2019-03-21T21:19:49.749Z,15.25
2019-03-21T21:22:19.884Z,15.45
2019-03-21T21:24:49.731Z,19.60
2019-03-21T21:27:20.319Z,21.57
2019-03-21T21:29:51.543Z,41.63
2019-03-21T21:32:24.132Z,33.28
2019-03-21T21:34:54.767Z,28.55
2019-03-21T21:37:24.879Z,25.83
2019-03-21T21:39:55.045Z,14.25
2019-03-21T21:42:34.614Z,17.77
2019-03-21T21:45:23.607Z,15.93
2019-03-21T21:47:53.039Z,14.87
2019-03-21T21:50:23.567Z,12.88
2019-03-21T21:52:55.595Z,12.60
2019-03-21T21:55:27.801Z,7.43
2019-03-21T21:57:58.615Z,10.05
2019-03-21T22:00:35.189Z,18.90
2019-03-21T22:03:07.543Z,7.22
2019-03-21T22:05:37.599Z,14.37
2019-03-21T22:08:07.445Z,15.90
2019-03-21T22:10:39.365Z,8.30
2019-03-21T22:13:10.139Z,7.93
2019-03-21T22:15:41.086Z,10.73
2019-03-21T22:18:16.743Z,8.37
2019-03-21T22:20:46.532Z,8.97
2019-03-21T22:23:15.735Z,6.40
2019-03-21T22:25:47.121Z,7.53
2019-03-21T22:28:16.372Z,14.70
2019-03-21T22:30:47.019Z,10.53
2019-03-21T22:33:16.977Z,4.30
2019-03-21T22:35:48.000Z,2.97
2019-03-21T22:38:23.655Z,5.70
2019-03-21T22:40:53.609Z,3.93
2019-03-21T22:43:25.619Z,4.60
2019-03-21T22:45:55.705Z,3.03
2019-03-21T22:48:25.829Z,13.83
2019-03-21T22:50:55.925Z,5.33
2019-03-21T22:53:27.103Z,6.63
2019-03-21T22:55:56.915Z,8.37
2019-03-21T22:58:31.568Z,5.40
2019-03-21T23:00:58.844Z,7.50
2019-03-21T23:03:28.687Z,7.90
2019-03-21T23:05:59.567Z,6.37
2019-03-21T23:08:29.411Z,12.07
2019-03-21T23:11:00.303Z,11.83
2019-03-21T23:13:31.143Z,25.87
2019-03-21T23:16:02.799Z,17.00
2019-03-21T23:18:33.540Z,44.67
2019-03-21T23:21:10.593Z,11.97
2019-03-21T23:23:41.408Z,24.00
2019-03-21T23:26:14.439Z,19.70
2019-03-21T23:28:44.531Z,9.50
2019-03-21T23:31:14.619Z,7.97
2019-03-21T23:33:44.721Z,7.33
2019-03-21T23:36:14.835Z,5.70
2019-03-21T23:38:44.991Z,8.00
2019-03-21T23:41:14.824Z,10.97
2019-03-21T23:43:45.783Z,14.67
2019-03-21T23:46:17.635Z,16.00
2019-03-21T23:48:47.602Z,13.27
2019-03-21T23:51:17.416Z,8.63
2019-03-21T23:53:48.304Z,28.23
2019-03-21T23:56:24.155Z,12.83
2019-03-21T23:58:54.116Z,11.30
